Time;durP1;ratioP1;P1;durP2;ratioP2;P2;SDS_P1;SDS_P2;PMS_P1;PMS_P2;Temp;Humidity;BMP_temperature;BMP_pressure;BME280_temperature;BME280_humidity;BME280_pressure;Samples;Min_cycle;Max_cycle;Signal;HPM_P1;HPM_P2
2022/12/22 03:26:43;;;;;;;22.80;15.28;;;22.80;76.10;;;;;;1802411;78;21224;-72
2022/12/22 03:29:16;;;;;;;20.15;16.32;;;22.80;76.00;;;;;;1804970;78;21298;-73
2022/12/22 03:31:47;;;;;;;22.50;15.93;;;22.90;75.50;;;;;;1802502;78;21185;-72
2022/12/22 03:34:19;;;;;;;21.82;14.33;;;23.00;75.20;;;;;;1809596;78;21177;-72
2022/12/22 03:36:50;;;;;;;20.70;14.38;;;23.10;74.30;;;;;;1801676;78;21564;-72
2022/12/22 03:39:21;;;;;;;23.87;14.55;;;23.10;74.20;;;;;;1804387;78;21166;-72
2022/12/22 03:47:32;;;;;;;20.62;14.98;;;23.30;74.30;;;;;;1804963;78;21287;-70
2022/12/22 03:50:03;;;;;;;21.70;14.78;;;23.40;73.70;;;;;;1807373;78;21404;-71
2022/12/22 03:52:34;;;;;;;21.75;14.23;;;;;;;;;;1805606;78;21272;-72
2022/12/22 03:55:05;;;;;;;19.05;14.30;;;23.60;72.40;;;;;;1803794;78;21138;-72
2022/12/22 03:57:36;;;;;;;22.37;14.78;;;23.70;72.80;;;;;;1807533;78;21098;-73
2022/12/22 04:00:09;;;;;;;22.30;14.18;;;23.80;73.10;;;;;;1806620;78;21094;-72
2022/12/22 04:02:42;;;;;;;21.77;14.68;;;23.80;72.70;;;;;;1804591;78;21177;-74
2022/12/22 04:05:14;;;;;;;22.65;14.73;;;23.90;72.20;;;;;;1817015;77;21700;-73
2022/12/22 04:07:46;;;;;;;23.83;14.25;;;24.00;71.20;;;;;;1804385;77;21675;-73
2022/12/22 04:13:05;;;;;;;16.87;13.78;;;24.20;71.40;;;;;;1807302;78;21625;-71
2022/12/22 04:15:37;;;;;;;19.23;13.38;;;24.20;71.40;;;;;;1803661;78;21267;-73
2022/12/22 04:18:08;;;;;;;17.73;13.38;;;24.30;70.20;;;;;;1802789;78;21161;-71
2022/12/22 04:20:39;;;;;;;21.50;12.68;;;24.40;70.10;;;;;;1805153;77;21659;-71
2022/12/22 04:23:10;;;;;;;19.82;13.75;;;24.50;69.50;;;;;;1824227;77;21163;-72
2022/12/22 04:25:57;;;;;;;18.12;12.68;;;24.60;69.30;;;;;;1831700;78;21134;-70
2022/12/22 04:28:29;;;;;;;16.37;12.37;;;24.60;69.00;;;;;;1830338;77;21661;-72
2022/12/22 04:31:00;;;;;;;22.17;12.98;;;24.80;68.70;;;;;;1826908;77;21082;-72
2022/12/22 04:33:31;;;;;;;19.42;12.35;;;24.80;68.90;;;;;;1828658;77;21129;-73
2022/12/22 04:36:02;;;;;;;21.50;12.95;;;24.90;69.30;;;;;;1829199;77;21198;-73
2022/12/22 04:38:33;;;;;;;16.05;12.10;;;24.90;68.70;;;;;;1830256;77;21164;-73
2022/12/22 04:41:04;;;;;;;21.80;12.70;;;25.00;68.50;;;;;;1827950;77;21160;-70
2022/12/22 04:43:36;;;;;;;17.57;12.40;;;25.10;69.60;;;;;;1824595;77;21120;-72
2022/12/22 04:46:07;;;;;;;19.55;12.10;;;25.20;68.20;;;;;;1827337;77;21157;-72
2022/12/22 04:48:38;;;;;;;17.23;12.00;;;25.30;68.90;;;;;;1827016;77;21176;-71
2022/12/22 04:51:10;;;;;;;15.35;11.88;;;25.40;67.70;;;;;;1827702;77;21097;-72
2022/12/22 04:53:46;;;;;;;19.25;12.50;;;25.50;67.70;;;;;;1833381;77;21704;-72
2022/12/22 04:56:18;;;;;;;15.15;11.38;;;25.60;68.20;;;;;;1832535;76;21171;-72
2022/12/22 04:58:49;;;;;;;19.45;11.60;;;25.70;68.40;;;;;;1838669;76;21170;-73
2022/12/22 05:01:20;;;;;;;14.28;10.65;;;;;;;;;;1826789;77;21165;-71
2022/12/22 05:03:51;;;;;;;18.77;11.38;;;25.90;65.90;;;;;;1826447;77;21653;-73
2022/12/22 05:06:22;;;;;;;17.85;11.43;;;26.00;65.30;;;;;;1833987;76;21249;-72
2022/12/22 05:08:54;;;;;;;19.67;10.78;;;26.10;65.30;;;;;;1829426;77;21173;-72
2022/12/22 05:11:44;;;;;;;16.77;11.40;;;26.20;65.10;;;;;;1826771;77;21151;-70
2022/12/22 05:14:15;;;;;;;16.50;11.18;;;26.20;64.40;;;;;;1811221;76;21157;-71
2022/12/22 05:16:49;;;;;;;15.50;11.18;;;26.20;64.50;;;;;;1828093;76;21655;-71
2022/12/22 05:19:20;;;;;;;14.93;10.65;;;26.30;65.30;;;;;;1828454;77;21251;-69
2022/12/22 05:21:53;;;;;;;14.38;10.45;;;26.30;63.90;;;;;;1826775;77;21136;-70
2022/12/22 05:24:24;;;;;;;14.93;10.43;;;26.30;65.50;;;;;;1821593;77;21202;-72
2022/12/22 05:26:59;;;;;;;17.75;11.45;;;26.40;61.80;;;;;;1823347;77;21165;-71
2022/12/22 05:29:30;;;;;;;15.38;11.75;;;26.40;62.50;;;;;;1825584;77;21117;-70
2022/12/22 05:32:02;;;;;;;20.05;12.30;;;;;;;;;;1828402;76;21164;-71
2022/12/22 05:34:35;;;;;;;14.23;10.60;;;26.50;63.20;;;;;;1792062;78;21093;-73
2022/12/22 05:37:07;;;;;;;20.32;11.70;;;26.50;63.40;;;;;;1831584;77;21235;-70
2022/12/22 05:39:38;;;;;;;16.77;10.88;;;26.60;62.40;;;;;;1831997;77;21667;-69
2022/12/22 05:42:09;;;;;;;14.73;10.98;;;26.70;62.90;;;;;;1831576;78;21219;-71
2022/12/22 05:44:40;;;;;;;15.43;10.95;;;26.70;61.30;;;;;;1825391;77;21227;-71
2022/12/22 05:47:11;;;;;;;16.15;10.70;;;26.80;62.80;;;;;;1824689;77;21870;-71
2022/12/22 05:49:44;;;;;;;18.60;10.78;;;26.80;60.80;;;;;;1826986;77;21818;-71
2022/12/22 05:52:15;;;;;;;16.97;11.40;;;26.90;61.90;;;;;;1827722;77;21215;-72
2022/12/22 05:54:46;;;;;;;14.90;10.08;;;27.00;61.50;;;;;;1830675;77;21137;-69
2022/12/22 05:57:19;;;;;;;13.85;10.32;;;27.10;60.80;;;;;;1831608;77;21138;-70
2022/12/22 05:59:51;;;;;;;16.50;11.38;;;27.20;60.20;;;;;;1827690;77;21200;-70
2022/12/22 06:02:26;;;;;;;14.87;10.65;;;27.20;60.10;;;;;;1829022;77;21603;-68
2022/12/22 06:04:58;;;;;;;13.58;10.15;;;27.20;60.00;;;;;;1830412;77;21203;-72
2022/12/22 06:07:29;;;;;;;16.17;10.40;;;27.20;60.00;;;;;;1828772;77;21677;-71
2022/12/22 06:10:00;;;;;;;13.65;10.25;;;27.20;59.70;;;;;;1819078;77;21232;-72
2022/12/22 06:12:35;;;;;;;14.10;10.38;;;27.20;59.70;;;;;;1841628;77;21271;-70
2022/12/22 06:15:06;;;;;;;13.30;10.38;;;27.20;59.70;;;;;;1793472;78;21166;-70
2022/12/22 06:17:38;;;;;;;14.63;10.60;;;27.20;60.00;;;;;;1763686;80;21726;-70
2022/12/22 06:20:11;;;;;;;19.17;12.30;;;27.20;60.60;;;;;;1757173;80;21177;-70
2022/12/22 06:22:42;;;;;;;15.50;10.68;;;27.20;60.20;;;;;;1775099;79;21612;-71
2022/12/22 06:25:14;;;;;;;13.35;10.38;;;27.20;60.10;;;;;;1781451;79;21257;-70
2022/12/22 06:27:47;;;;;;;17.05;11.50;;;27.20;60.00;;;;;;1777482;79;21158;-70
2022/12/22 06:30:27;;;;;;;16.70;11.08;;;27.30;59.90;;;;;;1779305;79;21679;-71
2022/12/22 06:32:55;;;;;;;14.83;10.78;;;27.40;59.70;;;;;;1778108;79;21174;-70
2022/12/22 06:35:26;;;;;;;15.13;10.38;;;27.50;59.60;;;;;;1777298;79;21261;-70
2022/12/22 06:37:58;;;;;;;14.78;10.90;;;27.50;60.10;;;;;;1781040;79;21144;-71
2022/12/22 06:40:29;;;;;;;27.22;11.38;;;27.50;59.30;;;;;;1778476;79;21182;-71
2022/12/22 06:43:10;;;;;;;16.37;11.12;;;27.60;59.80;;;;;;1779999;79;21111;-71
2022/12/22 06:45:44;;;;;;;15.40;11.10;;;27.70;60.10;;;;;;1777598;79;21198;-70
2022/12/22 06:48:15;;;;;;;13.22;10.80;;;27.70;60.20;;;;;;1774755;79;21154;-70
2022/12/22 06:50:47;;;;;;;14.23;10.68;;;27.80;59.00;;;;;;1773081;79;21598;-71
2022/12/22 06:53:18;;;;;;;19.10;12.25;;;27.70;58.70;;;;;;1764071;79;21312;-72
2022/12/22 06:55:51;;;;;;;15.40;10.45;;;27.80;59.30;;;;;;1771758;80;21249;-72
2022/12/22 06:58:25;;;;;;;15.88;10.40;;;27.90;58.40;;;;;;1765011;80;21154;-72
2022/12/22 07:00:57;;;;;;;18.95;11.60;;;27.90;59.10;;;;;;1773046;79;21280;-72
2022/12/22 07:03:28;;;;;;;17.85;11.08;;;27.90;59.00;;;;;;1771102;79;21155;-71
2022/12/22 07:06:00;;;;;;;18.07;10.78;;;27.90;58.50;;;;;;1795671;78;21184;-71
2022/12/22 07:08:31;;;;;;;16.48;10.70;;;27.90;58.60;;;;;;1827661;78;21133;-72
2022/12/22 07:11:04;;;;;;;17.67;11.10;;;27.80;58.70;;;;;;1837191;77;21094;-72
2022/12/22 07:13:36;;;;;;;15.90;11.60;;;27.80;59.10;;;;;;1834789;77;21252;-70
2022/12/22 07:16:09;;;;;;;17.55;11.48;;;27.80;58.80;;;;;;1829628;77;21093;-70
2022/12/22 07:18:42;;;;;;;14.73;10.85;;;27.70;59.00;;;;;;1838226;76;21155;-71
2022/12/22 07:21:14;;;;;;;14.20;10.48;;;27.70;60.60;;;;;;1834174;76;21840;-70
2022/12/22 07:23:45;;;;;;;16.45;11.30;;;27.70;59.40;;;;;;1838384;76;21510;-71
2022/12/22 07:26:17;;;;;;;15.32;10.75;;;27.80;58.90;;;;;;1818791;78;21109;-70
2022/12/22 07:28:50;;;;;;;14.90;10.90;;;27.80;59.40;;;;;;1824621;77;21640;-72
2022/12/22 07:31:22;;;;;;;16.77;11.15;;;27.90;58.70;;;;;;1823917;77;21234;-71
2022/12/22 07:33:55;;;;;;;14.43;10.28;;;27.90;58.50;;;;;;1795059;77;21148;-72
2022/12/22 07:36:31;;;;;;;13.65;10.75;;;27.90;58.40;;;;;;1798229;77;21152;-72
2022/12/22 07:39:01;;;;;;;15.85;10.65;;;27.80;58.70;;;;;;1813715;77;21082;-71
2022/12/22 07:44:23;;;;;;;13.10;10.18;;;27.80;58.50;;;;;;1825329;77;21121;-71
2022/12/22 07:46:54;;;;;;;13.98;10.58;;;27.80;58.70;;;;;;1824018;77;21675;-70
2022/12/22 07:52:14;;;;;;;14.20;10.20;;;27.70;58.70;;;;;;1825885;77;21239;-69
2022/12/22 07:54:45;;;;;;;14.73;10.90;;;27.70;59.30;;;;;;1829130;77;21101;-70
2022/12/22 07:57:16;;;;;;;15.55;10.43;;;27.70;59.20;;;;;;1824724;77;21180;-69
2022/12/22 07:59:49;;;;;;;15.20;10.78;;;27.70;58.80;;;;;;1822437;77;21299;-71
2022/12/22 08:02:20;;;;;;;13.48;10.20;;;27.70;59.00;;;;;;1828630;77;21144;-72
2022/12/22 08:04:53;;;;;;;17.02;11.20;;;27.70;59.10;;;;;;1823629;77;21164;-72
2022/12/22 08:07:25;;;;;;;16.12;11.03;;;27.70;59.00;;;;;;1826507;77;21137;-71
2022/12/22 08:09:57;;;;;;;15.08;10.98;;;27.70;59.10;;;;;;1824397;77;21117;-71
2022/12/22 08:12:28;;;;;;;19.17;12.23;;;27.70;59.20;;;;;;1824469;77;21105;-72
2022/12/22 08:15:00;;;;;;;16.50;10.20;;;27.70;58.90;;;;;;1822807;77;21627;-70
2022/12/22 08:17:31;;;;;;;15.98;10.48;;;27.70;59.40;;;;;;1827474;77;21215;-71
2022/12/22 08:20:03;;;;;;;15.35;11.03;;;27.60;59.10;;;;;;1807049;77;21192;-70
2022/12/22 08:22:41;;;;;;;15.05;10.95;;;27.60;59.20;;;;;;1823158;77;21200;-70
2022/12/22 08:25:12;;;;;;;17.40;10.70;;;27.60;59.10;;;;;;1817380;77;21259;-70
2022/12/22 08:27:48;;;;;;;17.17;10.48;;;27.60;59.30;;;;;;1796373;78;21075;-69
2022/12/22 08:30:20;;;;;;;17.32;10.28;;;27.50;59.30;;;;;;1759124;80;21084;-69
2022/12/22 08:32:52;;;;;;;15.03;10.65;;;27.60;59.30;;;;;;1799746;79;21157;-69
2022/12/22 08:35:26;;;;;;;14.07;9.80;;;27.50;59.50;;;;;;1805688;77;21391;-70
2022/12/22 08:37:58;;;;;;;17.25;11.28;;;27.50;59.70;;;;;;1821900;78;21199;-70
2022/12/22 08:40:31;;;;;;;16.15;11.05;;;27.50;59.70;;;;;;1800170;79;21267;-70
2022/12/22 08:43:05;;;;;;;15.13;11.08;;;27.50;59.60;;;;;;1804285;77;21103;-70
2022/12/22 08:45:36;;;;;;;39.13;20.70;;;27.50;59.40;;;;;;1808569;77;21090;-69
2022/12/22 08:48:08;;;;;;;14.23;9.98;;;27.60;59.60;;;;;;1803565;78;21287;-70
2022/12/22 08:50:40;;;;;;;15.30;10.65;;;27.60;59.60;;;;;;1804550;78;21543;-70
2022/12/22 08:53:13;;;;;;;15.83;11.18;;;27.60;60.10;;;;;;1809490;78;21153;-70
2022/12/22 08:55:54;;;;;;;17.35;11.73;;;27.60;59.60;;;;;;1806014;76;21259;-69
2022/12/22 08:58:26;;;;;;;14.95;10.72;;;27.50;59.70;;;;;;1805590;77;21677;-71
2022/12/22 09:00:59;;;;;;;14.55;11.22;;;27.40;59.70;;;;;;1813754;77;21279;-72
2022/12/22 09:03:30;;;;;;;15.60;10.95;;;27.40;60.80;;;;;;1803276;78;22208;-71
2022/12/22 09:06:02;;;;;;;26.42;11.78;;;27.40;59.70;;;;;;1769696;79;21155;-71
2022/12/22 09:08:34;;;;;;;13.32;10.30;;;27.40;60.20;;;;;;1810217;77;21220;-70
2022/12/22 09:11:06;;;;;;;16.73;11.15;;;27.40;60.40;;;;;;1806272;78;21169;-71
2022/12/22 09:13:37;;;;;;;15.65;12.47;;;27.40;60.00;;;;;;1807535;78;21676;-71
2022/12/22 09:16:09;;;;;;;15.48;10.65;;;27.30;60.00;;;;;;1794686;79;21631;-71
2022/12/22 09:18:40;;;;;;;15.70;11.85;;;27.40;60.10;;;;;;1798808;79;21115;-69
2022/12/22 09:21:11;;;;;;;19.57;12.05;;;27.30;59.90;;;;;;1795073;79;21178;-71
2022/12/22 09:23:42;;;;;;;20.23;11.35;;;27.30;60.10;;;;;;1798626;78;21158;-72
2022/12/22 09:26:16;;;;;;;15.58;11.85;;;27.30;60.30;;;;;;1795104;77;21242;-70
2022/12/22 09:29:01;;;;;;;16.30;11.25;;;27.30;60.30;;;;;;1820639;78;21593;-71
2022/12/22 09:31:37;;;;;;;16.12;11.00;;;27.30;60.30;;;;;;1796158;78;21173;-71
2022/12/22 09:34:11;;;;;;;19.55;12.05;;;27.30;60.20;;;;;;1796278;78;21157;-73
2022/12/22 09:36:45;;;;;;;14.93;11.03;;;27.30;60.10;;;;;;1801937;79;21146;-70
2022/12/22 09:39:17;;;;;;;15.15;11.40;;;27.20;60.40;;;;;;1798913;78;21212;-70
2022/12/22 09:41:57;;;;;;;17.32;13.45;;;27.20;60.40;;;;;;1796174;78;21204;-71
2022/12/22 09:44:34;;;;;;;17.90;12.95;;;27.20;60.50;;;;;;1795799;78;21307;-70
2022/12/22 09:47:16;;;;;;;19.60;12.75;;;27.20;60.40;;;;;;1797544;78;21177;-72
2022/12/22 09:49:50;;;;;;;25.50;13.18;;;27.10;60.60;;;;;;1733419;81;21167;-71
2022/12/22 09:52:39;;;;;;;28.23;13.85;;;27.10;60.60;;;;;;1753274;80;21250;-71
2022/12/22 09:55:28;;;;;;;26.20;13.38;;;27.10;60.70;;;;;;1755657;79;21300;-70
2022/12/22 09:57:59;;;;;;;19.23;12.60;;;27.10;61.20;;;;;;1759185;80;21223;-72
2022/12/22 10:00:30;;;;;;;20.65;11.65;;;27.00;61.20;;;;;;1802228;77;21133;-71
2022/12/22 10:03:22;;;;;;;17.37;11.40;;;27.10;61.30;;;;;;1795601;78;21213;-72
2022/12/22 10:05:58;;;;;;;16.20;11.25;;;27.00;61.50;;;;;;1685699;82;21270;-72
2022/12/22 10:08:32;;;;;;;15.98;11.08;;;27.00;61.60;;;;;;1747538;80;21271;-70
2022/12/22 10:11:06;;;;;;;16.15;11.57;;;27.00;61.90;;;;;;1758828;79;21206;-73
2022/12/22 10:13:37;;;;;;;17.73;12.47;;;26.90;63.20;;;;;;1792793;77;21153;-72
2022/12/22 10:16:21;;;;;;;22.10;13.78;;;26.90;62.50;;;;;;1807870;77;21645;-72
2022/12/22 10:19:01;;;;;;;21.45;12.88;;;26.90;62.80;;;;;;1810334;77;21223;-72
2022/12/22 10:21:33;;;;;;;22.10;12.25;;;26.80;63.10;;;;;;1810348;77;21699;-70
2022/12/22 10:24:20;;;;;;;16.85;12.85;;;26.80;63.50;;;;;;1819689;77;21133;-72
2022/12/22 10:26:54;;;;;;;16.60;12.58;;;26.70;63.10;;;;;;1807639;77;21213;-71
2022/12/22 10:29:27;;;;;;;17.73;11.93;;;26.70;63.10;;;;;;1817727;77;21625;-71
2022/12/22 10:32:03;;;;;;;19.00;13.10;;;26.70;63.20;;;;;;1816789;77;21134;-71
2022/12/22 10:34:35;;;;;;;25.00;15.83;;;26.60;63.40;;;;;;1815420;77;21174;-71
2022/12/22 10:37:06;;;;;;;32.40;19.70;;;26.60;63.60;;;;;;1814934;77;21169;-73
2022/12/22 10:39:40;;;;;;;32.35;21.85;;;26.50;63.90;;;;;;1815422;77;21211;-71
2022/12/22 10:42:14;;;;;;;23.73;14.53;;;26.50;64.10;;;;;;1818330;77;21200;-72
2022/12/22 10:44:49;;;;;;;19.55;13.68;;;26.40;64.10;;;;;;1817138;77;21657;-71
2022/12/22 10:47:26;;;;;;;21.33;12.95;;;26.40;64.20;;;;;;1807106;78;21700;-71
2022/12/22 10:50:00;;;;;;;24.75;13.38;;;26.40;64.20;;;;;;1811255;78;21178;-71
2022/12/22 10:52:31;;;;;;;22.05;12.70;;;26.40;64.30;;;;;;1806564;78;21233;-72
2022/12/22 10:55:17;;;;;;;22.32;13.38;;;26.30;64.40;;;;;;1807437;78;21095;-71
2022/12/22 10:57:54;;;;;;;32.63;13.30;;;26.30;64.50;;;;;;1768383;78;21199;-69
2022/12/22 11:00:31;;;;;;;19.07;13.53;;;26.30;64.50;;;;;;1783993;78;21138;-70
2022/12/22 11:03:05;;;;;;;31.05;16.07;;;26.30;64.60;;;;;;1772705;80;21215;-71
2022/12/22 11:05:37;;;;;;;26.00;16.60;;;26.30;64.80;;;;;;1772762;80;21127;-70
2022/12/22 11:08:14;;;;;;;22.82;14.60;;;26.20;65.00;;;;;;1779392;80;21148;-73
2022/12/22 11:10:48;;;;;;;21.77;14.63;;;26.20;65.40;;;;;;1777692;80;21226;-70
2022/12/22 11:13:41;;;;;;;24.37;14.07;;;26.20;65.10;;;;;;1778011;80;21241;-71
2022/12/22 11:16:21;;;;;;;24.15;14.05;;;26.20;65.30;;;;;;1765598;80;21271;-70
2022/12/22 11:19:09;;;;;;;24.12;14.47;;;26.10;65.40;;;;;;1803340;78;21145;-69
2022/12/22 11:22:18;;;;;;;23.83;14.10;;;26.00;65.80;;;;;;1812929;78;21167;-70
2022/12/22 11:24:55;;;;;;;;;;;26.00;65.90;;;;;;1812366;78;21149;-70
2022/12/22 11:27:49;;;;;;;27.20;16.05;;;25.90;65.90;;;;;;1809010;77;20221;-69
2022/12/22 11:30:28;;;;;;;21.55;14.30;;;25.90;66.10;;;;;;1822931;77;21121;-71
2022/12/22 11:33:22;;;;;;;25.77;15.23;;;25.90;66.50;;;;;;1848479;75;21149;-69
2022/12/22 11:36:03;;;;;;;22.40;15.32;;;25.90;66.40;;;;;;1821317;77;21047;-70
2022/12/22 11:39:07;;;;;;;23.45;14.65;;;25.90;66.40;;;;;;1817534;77;21228;-71
2022/12/22 11:41:43;;;;;;;31.82;17.25;;;25.90;66.50;;;;;;1821915;77;21515;-70
2022/12/22 11:44:54;;;;;;;28.38;18.50;;;25.90;66.70;;;;;;1812677;77;21150;-71
2022/12/22 11:47:35;;;;;;;31.65;18.27;;;25.80;67.00;;;;;;1821208;76;21153;-71
2022/12/22 11:50:27;;;;;;;28.80;17.33;;;25.70;67.40;;;;;;1821678;77;21831;-70
2022/12/22 11:53:02;;;;;;;33.98;18.07;;;25.70;67.60;;;;;;1806437;76;21138;-70
2022/12/22 11:55:42;;;;;;;41.70;18.85;;;25.60;67.80;;;;;;1806726;76;21757;-70
2022/12/22 11:58:23;;;;;;;46.95;18.00;;;25.70;68.00;;;;;;1742249;80;21144;-69
2022/12/22 12:01:06;;;;;;;33.92;19.42;;;25.60;68.10;;;;;;1748137;80;21562;-71
2022/12/22 12:04:08;;;;;;;37.88;18.67;;;25.60;68.10;;;;;;1753730;80;21174;-73
2022/12/22 12:06:53;;;;;;;36.88;19.92;;;25.60;68.20;;;;;;1769280;79;21179;-72
2022/12/22 12:09:46;;;;;;;32.10;20.30;;;25.50;68.30;;;;;;1770607;79;21265;-71
2022/12/22 12:12:28;;;;;;;36.77;20.82;;;25.50;68.70;;;;;;1773980;79;21139;-70
2022/12/22 12:15:20;;;;;;;33.15;20.17;;;25.50;69.10;;;;;;1745927;82;21686;-71
2022/12/22 12:18:15;;;;;;;37.63;20.70;;;25.40;69.60;;;;;;1769676;79;21631;-72
2022/12/22 12:21:00;;;;;;;34.30;20.85;;;25.40;69.70;;;;;;1773245;79;21650;-71
2022/12/22 12:23:57;;;;;;;42.43;22.65;;;25.30;69.80;;;;;;1803029;77;21240;-71
2022/12/22 12:26:47;;;;;;;41.42;22.17;;;25.30;70.20;;;;;;1835155;77;21150;-72
2022/12/22 12:29:24;;;;;;;38.80;24.30;;;25.30;70.40;;;;;;1787748;80;21688;-71
2022/12/22 12:32:01;;;;;;;45.20;23.40;;;25.30;70.90;;;;;;1788053;80;21144;-69
2022/12/22 12:34:36;;;;;;;48.08;24.85;;;25.30;71.20;;;;;;1798717;77;21243;-71
2022/12/22 12:37:15;;;;;;;41.90;23.90;;;25.20;70.80;;;;;;1808337;77;21607;-71
2022/12/22 12:40:23;;;;;;;39.00;22.20;;;25.20;70.60;;;;;;1812656;77;21153;-71
2022/12/22 12:42:56;;;;;;;41.83;22.77;;;25.20;70.70;;;;;;1808995;79;21693;-70
2022/12/22 12:45:35;;;;;;;45.58;24.10;;;25.20;71.00;;;;;;1815647;79;21158;-71
2022/12/22 12:48:27;;;;;;;37.83;23.65;;;25.20;71.30;;;;;;1824178;77;21162;-70
2022/12/22 12:50:59;;;;;;;37.90;22.58;;;25.10;71.40;;;;;;1820913;77;21653;-71
2022/12/22 12:53:31;;;;;;;37.08;22.65;;;25.10;70.80;;;;;;1802115;79;21510;-71
2022/12/22 12:56:10;;;;;;;42.43;24.27;;;25.20;71.40;;;;;;1817590;78;21153;-70
2022/12/22 12:58:46;;;;;;;38.55;22.55;;;25.10;71.90;;;;;;1801395;78;21323;-70
2022/12/22 13:01:28;;;;;;;34.75;22.40;;;25.10;72.10;;;;;;1814133;77;21597;-72
2022/12/22 13:04:00;;;;;;;34.53;22.35;;;25.10;72.00;;;;;;1753711;80;21116;-72
2022/12/22 13:06:50;;;;;;;39.90;23.65;;;25.00;72.20;;;;;;1751309;82;21162;-72
2022/12/22 13:09:23;;;;;;;37.50;23.87;;;25.00;72.30;;;;;;1779662;79;21175;-72
2022/12/22 13:11:56;;;;;;;40.08;24.43;;;25.00;72.50;;;;;;1741969;81;22271;-71
2022/12/22 13:14:55;;;;;;;50.35;23.98;;;25.00;72.80;;;;;;1768615;79;21582;-72
2022/12/22 13:17:50;;;;;;;34.60;22.15;;;25.00;72.80;;;;;;1777535;79;21167;-72
2022/12/22 13:20:35;;;;;;;38.33;24.27;;;24.90;72.60;;;;;;1717480;82;21189;-71
2022/12/22 13:23:11;;;;;;;37.60;23.98;;;24.90;72.80;;;;;;1775051;79;21227;-71
2022/12/22 13:26:00;;;;;;;41.17;24.83;;;24.90;72.90;;;;;;1787956;80;21133;-71
2022/12/22 13:28:31;;;;;;;37.08;25.17;;;24.80;72.70;;;;;;1815127;78;21103;-71
2022/12/22 13:31:23;;;;;;;39.92;24.23;;;24.80;72.80;;;;;;1836022;78;21101;-71
2022/12/22 13:34:08;;;;;;;33.15;22.30;;;24.80;72.90;;;;;;1845202;76;21105;-70
2022/12/22 13:36:40;;;;;;;38.80;22.70;;;24.80;72.70;;;;;;1826117;76;21557;-71
2022/12/22 13:39:18;;;;;;;34.18;23.20;;;24.80;72.70;;;;;;1844127;76;21179;-71
2022/12/22 13:41:51;;;;;;;54.83;28.15;;;24.80;72.60;;;;;;1828138;76;21152;-71
2022/12/22 13:44:29;;;;;;;40.58;25.82;;;24.80;72.90;;;;;;1845613;77;21109;-69
2022/12/22 13:47:06;;;;;;;47.27;25.08;;;24.80;73.00;;;;;;1829544;78;21124;-70
2022/12/22 13:49:36;;;;;;;;;;;24.80;72.70;;;;;;1817172;78;21222;-70
2022/12/22 13:52:11;;;;;;;34.38;21.65;;;24.80;72.60;;;;;;1837394;77;20244;-72
2022/12/22 13:54:45;;;;;;;41.15;24.85;;;24.80;72.60;;;;;;1842356;76;21113;-70
2022/12/22 13:57:19;;;;;;;32.98;22.85;;;24.80;72.80;;;;;;1843927;77;21616;-72
2022/12/22 13:59:51;;;;;;;42.53;25.55;;;24.80;73.20;;;;;;1845268;77;21105;-71
2022/12/22 14:02:23;;;;;;;35.83;23.90;;;24.70;73.20;;;;;;1833284;76;21132;-72
2022/12/22 14:05:08;;;;;;;35.48;24.18;;;24.70;73.50;;;;;;1795927;78;21738;-72
2022/12/22 14:07:39;;;;;;;42.15;26.17;;;24.60;73.70;;;;;;1802394;79;21216;-73
2022/12/22 14:10:11;;;;;;;34.63;23.38;;;24.60;74.00;;;;;;1814826;78;21273;-74
2022/12/22 14:12:45;;;;;;;36.98;24.75;;;24.60;73.90;;;;;;1826305;78;21119;-73
2022/12/22 14:15:19;;;;;;;36.25;25.75;;;24.50;74.10;;;;;;1767419;80;21547;-74
2022/12/22 14:17:51;;;;;;;38.48;26.15;;;24.50;73.90;;;;;;1763537;80;21187;-72
2022/12/22 14:20:41;;;;;;;33.53;24.55;;;24.50;74.80;;;;;;1809528;78;21124;-83
2022/12/22 14:23:33;;;;;;;60.10;43.73;;;24.50;74.40;;;;;;1801514;78;21163;-84
2022/12/22 14:26:07;;;;;;;41.53;27.10;;;24.50;74.50;;;;;;1861319;76;21265;-82
2022/12/22 14:28:48;;;;;;;32.42;23.73;;;24.50;74.50;;;;;;1842300;77;21608;-83
2022/12/22 14:31:15;;;;;;;34.70;24.20;;;24.40;74.20;;;;;;1825191;78;21460;-84
2022/12/22 14:33:54;;;;;;;36.30;24.20;;;24.40;74.50;;;;;;1822828;78;21105;-83
2022/12/22 14:36:29;;;;;;;37.50;25.30;;;24.40;74.90;;;;;;1831877;78;21144;-82
2022/12/22 14:39:01;;;;;;;38.78;25.00;;;24.30;75.20;;;;;;1854178;77;21077;-82
2022/12/22 14:41:41;;;;;;;41.92;25.85;;;24.20;75.30;;;;;;1843292;77;21181;-81
2022/12/22 14:44:27;;;;;;;33.18;23.90;;;24.20;75.60;;;;;;1832102;78;21148;-82
2022/12/22 14:47:20;;;;;;;42.05;26.48;;;24.20;75.60;;;;;;1825062;78;21145;-83
2022/12/22 14:49:52;;;;;;;40.70;26.12;;;24.20;75.80;;;;;;1810447;78;21106;-83
2022/12/22 14:52:48;;;;;;;43.13;26.73;;;24.20;75.70;;;;;;1812095;78;21168;-82
2022/12/22 14:55:37;;;;;;;44.20;27.40;;;24.20;75.70;;;;;;1816756;77;21121;-83
2022/12/22 14:58:22;;;;;;;43.42;27.85;;;24.20;75.30;;;;;;1808782;78;21302;-82
2022/12/22 15:01:12;;;;;;;39.27;25.80;;;24.20;76.40;;;;;;1829689;78;21149;-82
2022/12/22 15:03:44;;;;;;;39.23;27.25;;;24.10;75.90;;;;;;1833836;77;21607;-83
2022/12/22 15:06:30;;;;;;;46.88;30.48;;;24.10;76.20;;;;;;1827132;77;21098;-83
2022/12/22 15:09:07;;;;;;;38.95;29.10;;;24.00;76.20;;;;;;1800115;78;21136;-83
2022/12/22 15:11:43;;;;;;;44.40;31.57;;;24.00;76.60;;;;;;1754359;80;21104;-83
2022/12/22 15:14:17;;;;;;;54.37;34.67;;;24.00;77.00;;;;;;1753874;80;21100;-84
2022/12/22 15:16:48;;;;;;;41.28;29.85;;;23.90;76.70;;;;;;1836076;77;21839;-82
2022/12/22 15:19:21;;;;;;;43.42;30.35;;;23.90;76.90;;;;;;1852077;77;21252;-84
2022/12/22 15:21:52;;;;;;;48.05;29.02;;;23.90;77.20;;;;;;1822240;77;21157;-82
2022/12/22 15:24:24;;;;;;;43.73;29.05;;;23.90;77.20;;;;;;1828436;77;21620;-82
2022/12/22 15:26:57;;;;;;;43.20;28.73;;;23.80;77.40;;;;;;1842055;77;21106;-82
2022/12/22 15:29:28;;;;;;;41.83;28.30;;;23.80;78.00;;;;;;1824865;78;21171;-80
2022/12/22 15:32:05;;;;;;;46.40;33.25;;;23.80;77.90;;;;;;1824401;78;21160;-85
2022/12/22 15:34:37;;;;;;;53.00;35.08;;;23.80;77.40;;;;;;1814810;77;21119;-83
2022/12/22 15:37:11;;;;;;;52.10;37.53;;;23.80;77.40;;;;;;1824411;77;21090;-83
2022/12/22 15:39:51;;;;;;;53.78;37.55;;;23.80;77.30;;;;;;1816334;78;21240;-82
2022/12/22 15:42:22;;;;;;;46.05;32.25;;;23.80;77.20;;;;;;1823852;78;21140;-84
2022/12/22 15:44:53;;;;;;;46.40;32.53;;;23.80;77.00;;;;;;1820021;77;21139;-83
2022/12/22 15:47:24;;;;;;;46.13;32.80;;;23.80;76.80;;;;;;1812460;77;21153;-82
2022/12/22 15:49:55;;;;;;;50.30;31.45;;;23.80;76.90;;;;;;1821553;77;21718;-83
2022/12/22 15:52:26;;;;;;;50.20;33.48;;;23.80;76.60;;;;;;1832986;77;21150;-84
2022/12/22 15:54:57;;;;;;;58.85;35.98;;;23.80;77.20;;;;;;1788164;78;21164;-85
2022/12/22 15:57:29;;;;;;;57.45;36.75;;;23.80;79.50;;;;;;1810557;77;21123;-83
2022/12/22 16:00:00;;;;;;;61.37;41.10;;;23.80;81.60;;;;;;1825715;77;21176;-83
2022/12/22 16:02:37;;;;;;;66.92;46.58;;;23.70;83.00;;;;;;1816020;78;21213;-83
2022/12/22 16:05:10;;;;;;;70.45;48.98;;;23.70;83.60;;;;;;1828046;77;21166;-83
2022/12/22 16:07:42;;;;;;;75.12;48.45;;;23.60;83.70;;;;;;1828361;77;21245;-84
2022/12/22 16:10:25;;;;;;;75.75;51.48;;;23.50;83.10;;;;;;1815750;78;21620;-83
2022/12/22 16:13:05;;;;;;;73.02;51.18;;;23.40;83.40;;;;;;1809113;77;21159;-83
2022/12/22 16:15:36;;;;;;;80.55;52.85;;;23.30;84.30;;;;;;1825931;78;21140;-82
2022/12/22 16:18:07;;;;;;;73.35;49.33;;;23.30;84.70;;;;;;1811086;78;21147;-82
2022/12/22 16:20:41;;;;;;;68.62;49.48;;;23.30;84.90;;;;;;1818542;77;21544;-83
2022/12/22 16:23:17;;;;;;;74.05;48.85;;;23.20;84.70;;;;;;1810421;78;21141;-83
2022/12/22 16:25:53;;;;;;;73.00;51.80;;;23.10;85.40;;;;;;1843788;77;21094;-83
2022/12/22 16:28:24;;;;;;;70.08;49.23;;;23.10;84.60;;;;;;1834216;77;21213;-84
2022/12/22 16:30:57;;;;;;;70.52;48.35;;;23.00;84.80;;;;;;1783361;79;21658;-84
2022/12/22 16:33:28;;;;;;;69.90;49.42;;;23.00;84.70;;;;;;1775460;80;21086;-83
2022/12/22 16:36:02;;;;;;;68.60;47.98;;;23.00;84.70;;;;;;1777795;79;21171;-83
2022/12/22 16:38:34;;;;;;;66.37;48.13;;;22.90;84.40;;;;;;1765498;81;21165;-82
2022/12/22 16:41:08;;;;;;;65.92;46.30;;;23.00;84.50;;;;;;1802683;79;21091;-83
2022/12/22 16:43:40;;;;;;;70.70;45.00;;;22.90;84.50;;;;;;1788790;79;21098;-82
2022/12/22 16:46:22;;;;;;;66.65;44.77;;;22.90;84.40;;;;;;1775239;81;21116;-82
2022/12/22 16:48:59;;;;;;;62.85;44.03;;;22.90;84.20;;;;;;1771057;79;21118;-81
2022/12/22 16:51:35;;;;;;;59.90;40.80;;;22.90;84.10;;;;;;1771386;79;21697;-83